This is the latest recevied weather packets stored in our database for station/object KY4LEX. If no packets are shown the sender has not sent any weather packets the latest 10 day(s).
| Time | Temp. | Humidity | Pressure | Rain* | Wind** | Luminosity | Snow |
|---|---|---|---|---|---|---|---|
| 1777588738 | 17.22° C | 34% | 1020.5 hPa | 0 mm | - | 140 W/m² | - |
| 1777588434 | 17.78° C | 33% | 1020.4 hPa | 0 mm | - | 148 W/m² | - |
| 1777588129 | 17.22° C | 34% | 1020.4 hPa | 0 mm | - | 164 W/m² | - |
| 1777587826 | 17.78° C | 33% | 1020.2 hPa | 0 mm | - | 177 W/m² | - |
| 1777587525 | 18.33° C | 33% | 1020.5 hPa | 0 mm | - | 192 W/m² | - |
| 1777587221 | 18.33° C | 35% | 1020.2 hPa | 0 mm | - | 205 W/m² | - |
| 1777586917 | 17.78° C | 39% | 1020.4 hPa | 0 mm | - | 135 W/m² | - |
| 1777586613 | 18.33° C | 31% | 1020.5 hPa | 0 mm | - | 231 W/m² | - |
| 1777586309 | 18.33° C | 32% | 1020.2 hPa | 0 mm | - | 246 W/m² | - |
| 1777586007 | 18.33° C | 32% | 1020 hPa | 0 mm | - | 260 W/m² | - |
| 1777585702 | 18.89° C | 31% | 1020.2 hPa | 0 mm | - | 273 W/m² | - |
| 1777585402 | 19.44° C | 30% | 1020.2 hPa | 0 mm | - | 285 W/m² | - |
| 1777585102 | 18.89° C | 33% | 1020.1 hPa | 0 mm | - | 301 W/m² | - |
| 1777584798 | 18.89° C | 35% | 1020.4 hPa | 0 mm | - | 312 W/m² | - |
| 1777584497 | 18.33° C | 33% | 1020 hPa | 0 mm | - | 326 W/m² | - |
| 1777584193 | 18.89° C | 33% | 1020.2 hPa | 0 mm | - | 341 W/m² | - |
| 1777583892 | 18.33° C | 32% | 1020.2 hPa | 0 mm | - | 352 W/m² | - |
| 1777583588 | 17.78° C | 32% | 1020.4 hPa | 0 mm | - | 366 W/m² | - |
| 1777583287 | 18.89° C | 34% | 1020.4 hPa | 0 mm | - | 377 W/m² | - |
| 1777582982 | 19.44° C | 35% | 1020.7 hPa | 0 mm | - | 390 W/m² | - |
| 1777582680 | 18.89° C | 34% | 1020.5 hPa | 0 mm | - | 405 W/m² | - |
| 1777582380 | 18.89° C | 32% | 1020.7 hPa | 0 mm | - | 417 W/m² | - |
| 1777582078 | 18.89° C | 31% | 1020.8 hPa | 0 mm | - | 431 W/m² | - |
| 1777581773 | 18.33° C | 32% | 1020.8 hPa | 0 mm | - | 444 W/m² | - |
| 1777581472 | 18.33° C | 33% | 1020.8 hPa | 0 mm | - | 457 W/m² | - |
* Rain latest hour (hover to see other rain measurements)
** Current wind speed in m/s (hover to see current wind gust speed)